createdAt,value
2023-03-16T04:54:35.431Z,0.00
2023-03-16T04:55:35.419Z,0.00
2023-03-16T04:56:35.439Z,0.00
2023-03-16T04:57:35.408Z,0.00
2023-03-16T05:03:35.342Z,0.00
2023-03-16T05:04:35.334Z,0.00
2023-03-16T05:09:35.285Z,0.00
2023-03-16T05:10:35.274Z,0.00
2023-03-16T05:11:35.308Z,0.00
2023-03-16T05:12:35.251Z,0.00
2023-03-16T05:13:35.235Z,0.00
2023-03-16T05:14:35.238Z,0.00
2023-03-16T05:15:35.316Z,0.00
2023-03-16T05:16:35.206Z,0.00
2023-03-16T05:17:35.199Z,0.00
2023-03-16T05:18:35.195Z,0.00
2023-03-16T05:19:35.178Z,0.00
2023-03-16T05:20:35.165Z,0.00
2023-03-16T05:21:35.154Z,0.00
2023-03-16T05:22:35.148Z,0.00
2023-03-16T05:23:35.142Z,0.00
2023-03-16T05:24:35.127Z,0.00
2023-03-16T05:25:35.135Z,0.00
2023-03-16T05:26:35.103Z,0.00
2023-03-16T05:27:35.095Z,0.00
2023-03-16T05:29:35.074Z,0.00
2023-03-16T05:30:35.062Z,0.00
2023-03-16T05:31:35.147Z,0.00
2023-03-16T05:32:35.110Z,0.00
2023-03-16T05:33:35.033Z,0.00
2023-03-16T05:34:35.022Z,0.00
2023-03-16T05:35:35.068Z,5.62
2023-03-16T05:36:35.005Z,5.62
2023-03-16T05:37:34.988Z,5.62
2023-03-16T05:38:34.982Z,5.62
2023-03-16T05:39:34.973Z,5.62
2023-03-16T05:40:34.963Z,5.62
2023-03-16T05:42:34.939Z,5.62
2023-03-16T05:43:34.930Z,11.25
2023-03-16T05:44:34.918Z,11.25
2023-03-16T05:45:34.913Z,11.25
2023-03-16T05:46:35.005Z,11.25
2023-03-16T05:47:34.916Z,11.25
2023-03-16T05:48:34.882Z,11.25
2023-03-16T05:49:34.869Z,11.25
2023-03-16T05:50:34.859Z,16.87
2023-03-16T05:51:34.848Z,16.87
2023-03-16T05:52:34.840Z,16.87
2023-03-16T05:53:34.830Z,16.87
2023-03-16T05:54:34.818Z,16.87
2023-03-16T05:55:34.807Z,16.87
2023-03-16T05:56:34.798Z,22.50
2023-03-16T05:57:34.787Z,22.50
2023-03-16T05:58:34.836Z,22.50
2023-03-16T05:59:34.774Z,22.50
2023-03-16T06:00:34.760Z,22.50
2023-03-16T06:01:34.744Z,28.12
2023-03-16T06:02:34.832Z,28.12
2023-03-16T06:03:34.814Z,28.12
2023-03-16T06:04:34.732Z,28.12
2023-03-16T06:05:34.704Z,28.12
2023-03-16T06:06:34.700Z,28.12
2023-03-16T06:07:34.697Z,33.75
2023-03-16T06:08:34.674Z,33.75
2023-03-16T06:09:34.678Z,33.75
2023-03-16T06:10:34.656Z,33.75
2023-03-16T06:13:34.621Z,39.37
2023-03-16T06:14:34.614Z,39.37
2023-03-16T06:15:34.601Z,45.00
2023-03-16T06:16:34.676Z,45.00
2023-03-16T06:17:34.600Z,45.00
2023-03-16T06:18:34.582Z,45.00
2023-03-16T06:19:34.592Z,45.00
2023-03-16T06:20:34.554Z,50.62
2023-03-16T06:21:34.546Z,50.62
2023-03-16T06:22:34.529Z,50.62
2023-03-16T06:23:34.525Z,50.62
2023-03-16T06:24:34.512Z,50.62
2023-03-16T06:25:34.504Z,56.25
2023-03-16T06:26:34.497Z,56.25
2023-03-16T06:27:34.491Z,56.25
2023-03-16T06:28:34.558Z,56.25
2023-03-16T06:29:34.466Z,56.25
2023-03-16T06:30:34.456Z,56.25
2023-03-16T06:31:34.506Z,61.87
2023-03-16T06:32:34.475Z,61.87
2023-03-16T06:33:34.464Z,61.87
2023-03-16T06:34:36.273Z,61.87
2023-03-16T06:35:34.477Z,61.87
2023-03-16T06:36:34.416Z,61.87
2023-03-16T06:37:34.388Z,67.50
2023-03-16T06:38:34.433Z,67.50
2023-03-16T06:39:34.366Z,67.50
2023-03-16T06:40:34.352Z,67.50
2023-03-16T06:41:34.340Z,67.50
2023-03-16T06:42:34.334Z,67.50
2023-03-16T06:43:34.328Z,73.12
2023-03-16T06:44:34.308Z,73.12
2023-03-16T06:45:34.357Z,73.12
2023-03-16T06:47:34.285Z,73.12
2023-03-16T06:48:34.274Z,73.12
2023-03-16T06:49:34.263Z,73.12
2023-03-16T06:50:34.253Z,73.12
2023-03-16T06:51:34.291Z,78.75
2023-03-16T06:52:34.237Z,78.75
2023-03-16T06:53:34.258Z,78.75
2023-03-16T06:54:34.220Z,78.75
2023-03-16T06:55:34.208Z,78.75
2023-03-16T06:56:34.194Z,78.75
2023-03-16T06:58:34.177Z,78.75
2023-03-16T06:59:34.163Z,84.37
2023-03-16T07:00:34.283Z,84.37
2023-03-16T07:01:34.192Z,84.37
2023-03-16T07:02:34.130Z,84.37
2023-03-16T07:04:34.236Z,90.00
2023-03-16T07:05:34.106Z,90.00
2023-03-16T07:09:36.751Z,95.62
2023-03-16T07:11:34.046Z,95.62
2023-03-16T07:12:34.035Z,106.87
2023-03-16T07:13:34.021Z,118.12
2023-03-16T07:14:34.011Z,129.37
2023-03-16T07:15:34.002Z,140.62
2023-03-16T07:18:33.969Z,151.87
2023-03-16T07:19:33.959Z,151.87
2023-03-16T07:20:33.947Z,146.25
2023-03-16T07:21:33.947Z,129.37
2023-03-16T07:22:33.932Z,118.12
2023-03-16T07:23:33.954Z,118.12
2023-03-16T07:24:33.905Z,140.62
2023-03-16T07:25:33.897Z,163.12
2023-03-16T07:26:33.889Z,163.12
2023-03-16T07:28:34.021Z,163.12
2023-03-16T07:29:33.858Z,168.75
2023-03-16T07:30:33.847Z,168.75
2023-03-16T07:31:33.878Z,168.75
2023-03-16T07:32:33.868Z,174.37
2023-03-16T07:33:33.819Z,174.37
2023-03-16T07:34:33.810Z,168.75
2023-03-16T07:35:33.796Z,174.37
2023-03-16T07:36:33.786Z,174.37
2023-03-16T07:37:33.777Z,174.37
2023-03-16T07:38:33.782Z,174.37
2023-03-16T07:39:33.803Z,180.00
2023-03-16T07:40:33.745Z,185.62
2023-03-16T07:41:33.735Z,191.25
2023-03-16T07:42:33.724Z,191.25
2023-03-16T07:43:33.709Z,191.25
2023-03-16T07:44:33.701Z,191.25
2023-03-16T07:46:33.917Z,185.62
2023-03-16T07:47:33.756Z,185.62
2023-03-16T07:48:33.664Z,185.62
2023-03-16T07:49:33.651Z,185.62
2023-03-16T07:50:33.640Z,185.62
2023-03-16T07:51:33.633Z,191.25
2023-03-16T07:52:35.793Z,185.62
2023-03-16T07:53:33.626Z,180.00
2023-03-16T07:54:33.597Z,174.37
2023-03-16T07:55:33.612Z,174.37
2023-03-16T07:56:47.522Z,174.37
2023-03-16T07:57:34.596Z,174.37
2023-03-16T07:58:33.560Z,174.37
2023-03-16T07:59:33.548Z,180.00
2023-03-16T08:00:33.535Z,180.00
2023-03-16T08:01:33.527Z,180.00
2023-03-16T08:02:33.604Z,174.37
2023-03-16T08:03:33.554Z,174.37
2023-03-16T08:04:33.501Z,174.37
2023-03-16T08:05:33.484Z,168.75
2023-03-16T08:06:33.474Z,168.75
2023-03-16T08:07:33.467Z,174.37
2023-03-16T08:08:33.455Z,174.37
2023-03-16T08:09:33.447Z,180.00
2023-03-16T08:10:33.497Z,174.37
2023-03-16T08:11:33.449Z,174.37
2023-03-16T08:12:33.500Z,174.37
2023-03-16T08:13:33.406Z,180.00
2023-03-16T08:14:33.396Z,180.00
2023-03-16T08:15:33.433Z,180.00
2023-03-16T08:16:33.463Z,180.00
2023-03-16T08:17:33.367Z,180.00
2023-03-16T08:18:33.351Z,174.37
2023-03-16T08:19:33.344Z,174.37
2023-03-16T08:20:33.338Z,180.00
2023-03-16T08:21:33.347Z,180.00
2023-03-16T08:22:33.315Z,180.00
2023-03-16T08:24:33.293Z,180.00
2023-03-16T08:25:33.294Z,180.00
2023-03-16T08:26:33.272Z,180.00
2023-03-16T08:27:33.325Z,180.00
2023-03-16T08:28:33.280Z,185.62
2023-03-16T08:29:33.244Z,185.62
2023-03-16T08:30:33.336Z,191.25
2023-03-16T08:31:33.312Z,191.25
2023-03-16T08:32:33.276Z,185.62
2023-03-16T08:33:33.208Z,185.62
2023-03-16T08:34:33.301Z,185.62
2023-03-16T08:35:33.228Z,191.25
2023-03-16T08:36:33.174Z,191.25
2023-03-16T08:37:33.161Z,191.25
2023-03-16T08:38:33.152Z,191.25
2023-03-16T08:39:33.146Z,191.25
2023-03-16T08:40:33.134Z,191.25
2023-03-16T08:41:33.124Z,191.25
2023-03-16T08:42:33.112Z,191.25
2023-03-16T08:43:33.140Z,191.25
2023-03-16T08:44:33.231Z,191.25
2023-03-16T08:45:33.083Z,191.25
2023-03-16T08:46:33.123Z,191.25
2023-03-16T08:47:33.063Z,191.25
2023-03-16T08:48:33.049Z,191.25
2023-03-16T08:49:33.041Z,196.87
2023-03-16T08:50:33.026Z,191.25
2023-03-16T08:51:33.022Z,191.25
2023-03-16T08:52:33.009Z,196.87
2023-03-16T08:53:33.000Z,196.87
2023-03-16T08:54:33.063Z,202.50
2023-03-16T08:55:32.988Z,202.50
2023-03-16T08:56:32.968Z,208.12
2023-03-16T08:57:32.955Z,208.12
2023-03-16T08:58:33.002Z,213.75
2023-03-16T08:59:32.967Z,208.12
2023-03-16T09:00:32.928Z,208.12
2023-03-16T09:01:32.975Z,202.50
2023-03-16T09:02:32.912Z,191.25
2023-03-16T09:03:32.893Z,208.12
2023-03-16T09:04:33.077Z,196.87
2023-03-16T09:05:32.876Z,219.37
2023-03-16T09:06:32.863Z,241.87
2023-03-16T09:07:32.852Z,270.00
2023-03-16T09:08:32.901Z,286.87
2023-03-16T09:09:32.832Z,298.12
2023-03-16T09:10:32.827Z,315.00
2023-03-16T09:11:32.815Z,343.12
2023-03-16T09:12:32.805Z,360.00
2023-03-16T09:13:32.802Z,348.75
2023-03-16T09:14:32.800Z,326.25
2023-03-16T09:15:32.809Z,309.37
2023-03-16T09:16:32.819Z,292.50
2023-03-16T09:17:32.752Z,281.25
2023-03-16T09:18:32.744Z,275.62
2023-03-16T09:19:49.955Z,275.62
2023-03-16T09:20:33.817Z,270.00
2023-03-16T09:21:32.710Z,270.00
2023-03-16T09:22:32.703Z,264.37
2023-03-16T09:23:32.696Z,258.75
2023-03-16T09:24:32.685Z,264.37
2023-03-16T09:25:32.695Z,258.75
2023-03-16T09:26:32.765Z,264.37
2023-03-16T09:27:32.650Z,270.00
2023-03-16T09:28:32.644Z,270.00
2023-03-16T09:29:32.634Z,270.00
2023-03-16T09:30:32.623Z,264.37
2023-03-16T09:31:32.648Z,264.37
2023-03-16T09:32:32.641Z,264.37
2023-03-16T09:33:32.590Z,275.62
2023-03-16T09:34:33.335Z,281.25
2023-03-16T09:35:35.015Z,286.87
2023-03-16T09:36:32.561Z,286.87
2023-03-16T09:37:44.519Z,292.50
2023-03-16T09:38:33.667Z,286.87
2023-03-16T09:39:32.531Z,292.50
2023-03-16T09:40:32.523Z,292.50
2023-03-16T09:41:32.512Z,292.50
2023-03-16T09:42:32.505Z,286.87
2023-03-16T09:43:32.498Z,292.50
2023-03-16T09:44:32.484Z,292.50
2023-03-16T09:45:32.947Z,298.12
2023-03-16T09:46:33.916Z,298.12
2023-03-16T09:47:32.476Z,309.37
2023-03-16T09:48:32.454Z,320.62
2023-03-16T09:49:32.458Z,326.25
2023-03-16T09:50:47.112Z,331.87
2023-03-16T09:51:32.429Z,326.25
2023-03-16T09:52:32.403Z,320.62
2023-03-16T09:53:32.397Z,331.87
2023-03-16T09:54:32.425Z,343.12
2023-03-16T09:55:32.377Z,354.37
2023-03-16T09:56:32.369Z,348.75
2023-03-16T09:57:32.458Z,354.37
2023-03-16T09:59:32.359Z,388.12
2023-03-16T10:00:32.350Z,405.00
2023-03-16T10:01:32.446Z,416.25
2023-03-16T10:02:32.317Z,455.62
2023-03-16T10:03:32.361Z,545.62
2023-03-16T10:04:32.302Z,652.50
2023-03-16T10:05:32.273Z,652.50
2023-03-16T10:08:32.254Z,556.87
2023-03-16T10:09:32.237Z,545.62
2023-03-16T10:14:32.189Z,506.25
2023-03-16T10:15:32.183Z,511.87
2023-03-16T10:16:32.225Z,523.12
2023-03-16T10:18:32.156Z,551.25
2023-03-16T10:21:32.126Z,540.00
2023-03-16T10:23:32.097Z,540.00
2023-03-16T10:29:32.056Z,585.00
2023-03-16T10:30:32.027Z,556.87
2023-03-16T10:32:32.078Z,562.50
2023-03-16T10:33:31.999Z,540.00
2023-03-16T10:34:32.019Z,562.50
2023-03-16T10:35:32.007Z,579.37
2023-03-16T10:36:31.984Z,590.62
2023-03-16T10:37:31.963Z,573.75
2023-03-16T10:38:31.971Z,596.25
2023-03-16T10:39:31.936Z,590.62
2023-03-16T10:40:31.929Z,590.62
2023-03-16T10:41:31.924Z,590.62
2023-03-16T10:42:31.948Z,556.87
2023-03-16T10:43:31.904Z,556.87
2023-03-16T10:44:31.892Z,556.87
2023-03-16T10:45:32.264Z,635.62
2023-03-16T10:46:31.997Z,686.25
2023-03-16T10:47:31.878Z,652.50
2023-03-16T10:48:33.933Z,641.25
2023-03-16T10:49:33.449Z,669.37
2023-03-16T10:50:31.836Z,686.25
2023-03-16T10:51:31.856Z,708.75
2023-03-16T10:52:31.820Z,720.00
2023-03-16T10:53:31.818Z,675.00
2023-03-16T10:54:31.818Z,669.37
2023-03-16T10:55:31.789Z,675.00
2023-03-16T10:56:31.800Z,680.62
2023-03-16T10:57:31.780Z,753.75
2023-03-16T10:58:31.776Z,725.62
2023-03-16T10:59:31.757Z,691.87
2023-03-16T11:00:31.745Z,675.00
2023-03-16T11:01:31.776Z,714.37
2023-03-16T11:02:31.738Z,731.25
2023-03-16T11:03:31.767Z,748.12
2023-03-16T11:04:31.815Z,731.25
2023-03-16T11:05:31.933Z,736.87
2023-03-16T11:06:31.687Z,748.12
2023-03-16T11:07:31.697Z,731.25
2023-03-16T11:08:31.694Z,753.75
2023-03-16T11:09:31.655Z,776.25
2023-03-16T11:10:33.173Z,731.25
2023-03-16T11:11:31.637Z,753.75
2023-03-16T11:12:31.630Z,770.62
2023-03-16T11:13:31.618Z,736.87
2023-03-16T11:14:31.605Z,781.87
2023-03-16T11:15:31.761Z,810.00
2023-03-16T11:16:31.719Z,781.87
2023-03-16T11:17:31.577Z,793.12
2023-03-16T11:18:31.569Z,793.12
2023-03-16T11:19:31.566Z,821.25
2023-03-16T11:20:31.556Z,832.50
2023-03-16T11:21:31.546Z,776.25
2023-03-16T11:22:31.536Z,765.00
2023-03-16T11:23:31.552Z,821.25
2023-03-16T11:24:31.517Z,866.25
2023-03-16T11:25:31.527Z,860.62
2023-03-16T11:26:31.514Z,888.75
2023-03-16T11:27:31.496Z,838.12
2023-03-16T11:28:31.482Z,776.25
2023-03-16T11:29:31.472Z,793.12
2023-03-16T11:30:31.464Z,843.75
2023-03-16T11:31:31.682Z,871.87
2023-03-16T11:32:31.490Z,877.50
2023-03-16T11:36:06.598Z,939.37
2023-03-16T11:36:08.035Z,945.00
2023-03-16T11:37:07.975Z,928.12
2023-03-16T11:38:07.967Z,894.37
2023-03-16T11:39:07.993Z,922.50
2023-03-16T11:41:35.115Z,916.87
2023-03-16T11:41:36.535Z,922.50
2023-03-16T11:42:36.535Z,922.50
2023-03-16T11:45:58.070Z,900.00
2023-03-16T11:45:59.539Z,900.00
2023-03-16T12:01:23.812Z,877.50
2023-03-16T12:01:25.282Z,871.87
2023-03-16T15:13:14.306Z,1231.87
2023-03-16T16:02:25.236Z,680.62
2023-03-16T16:02:26.665Z,680.62
2023-03-16T16:03:33.857Z,697.50
2023-03-16T16:04:26.667Z,646.87
2023-03-16T16:05:26.633Z,624.37
2023-03-16T16:06:26.626Z,607.50
2023-03-16T16:07:26.628Z,669.37
2023-03-16T16:08:26.610Z,646.87
2023-03-16T16:24:24.323Z,601.87
2023-03-16T16:24:25.742Z,601.87
2023-03-16T16:26:54.321Z,675.00
2023-03-16T16:26:56.444Z,675.00
2023-03-16T16:28:40.959Z,624.37
2023-03-16T16:28:56.405Z,613.12
2023-03-16T16:29:56.394Z,618.75
2023-03-16T16:30:56.380Z,607.50
2023-03-16T16:31:56.479Z,568.12
2023-03-16T16:32:58.608Z,528.75
2023-03-16T16:33:56.352Z,495.00
2023-03-16T16:35:04.112Z,478.12
2023-03-16T16:35:57.430Z,489.37
2023-03-16T16:36:56.365Z,472.50
2023-03-16T16:37:56.314Z,444.37
2023-03-16T16:38:56.305Z,433.12
2023-03-16T16:39:56.320Z,433.12
2023-03-16T16:40:56.287Z,405.00
2023-03-16T16:41:56.299Z,360.00
2023-03-16T16:42:56.266Z,360.00
2023-03-16T16:43:56.256Z,343.12
2023-03-16T16:44:56.245Z,326.25
2023-03-16T16:45:56.283Z,371.25
2023-03-16T16:46:56.239Z,315.00
2023-03-16T16:47:56.223Z,264.37
2023-03-16T16:48:56.205Z,258.75
2023-03-16T16:49:56.201Z,281.25
2023-03-16T16:50:56.189Z,258.75
2023-03-16T16:51:56.182Z,225.00
2023-03-16T16:52:56.166Z,185.62
2023-03-16T16:53:56.155Z,168.75
2023-03-16T16:54:56.150Z,196.87
2023-03-16T16:55:56.159Z,264.37
2023-03-16T16:56:56.132Z,270.00
2023-03-16T16:57:56.125Z,219.37
2023-03-16T16:58:56.104Z,174.37
2023-03-16T16:59:56.097Z,163.12
2023-03-16T17:00:56.123Z,151.87
2023-03-16T17:01:56.082Z,151.87
2023-03-16T17:02:56.068Z,123.75
2023-03-16T17:03:56.059Z,95.62
2023-03-16T17:04:56.137Z,73.12
2023-03-16T17:05:56.052Z,61.87
2023-03-16T17:06:56.080Z,61.87
2023-03-16T17:07:56.026Z,56.25
2023-03-16T17:08:56.011Z,56.25
2023-03-16T17:09:56.000Z,50.62
2023-03-16T17:10:55.988Z,45.00
2023-03-16T17:11:56.037Z,39.37
2023-03-16T17:12:56.044Z,39.37
2023-03-16T17:13:55.954Z,33.75
2023-03-16T17:14:55.947Z,33.75
2023-03-16T17:15:55.933Z,28.12
2023-03-16T17:16:56.024Z,22.50
2023-03-16T17:17:55.912Z,22.50
2023-03-16T17:18:55.906Z,22.50
2023-03-16T17:19:55.895Z,16.87
2023-03-16T17:20:55.886Z,16.87
2023-03-16T17:21:55.878Z,16.87
2023-03-16T17:22:55.863Z,11.25
2023-03-16T17:23:55.853Z,11.25
2023-03-16T17:24:55.860Z,11.25
2023-03-16T17:25:55.836Z,5.62
2023-03-16T17:26:55.838Z,5.62
2023-03-16T17:27:55.854Z,5.62
2023-03-16T17:28:55.803Z,5.62
2023-03-16T17:29:55.795Z,5.62
2023-03-16T17:30:55.816Z,5.62
2023-03-16T17:31:55.773Z,5.62
2023-03-16T17:32:55.821Z,0.00
2023-03-16T17:33:55.753Z,0.00
2023-03-16T17:34:55.741Z,0.00
2023-03-16T17:35:55.801Z,0.00
2023-03-16T17:36:55.751Z,0.00
2023-03-16T17:37:55.713Z,0.00
2023-03-16T17:38:55.755Z,0.00
2023-03-16T17:39:57.525Z,0.00
2023-03-16T17:40:55.690Z,0.00
2023-03-16T17:41:55.675Z,0.00
2023-03-16T17:42:55.665Z,0.00
2023-03-16T17:43:55.687Z,0.00
2023-03-16T17:44:55.644Z,0.00
2023-03-16T17:45:55.721Z,0.00
2023-03-16T17:46:55.627Z,0.00
2023-03-16T17:47:55.615Z,0.00
2023-03-16T17:48:55.620Z,0.00
2023-03-16T17:49:55.600Z,0.00
2023-03-16T17:50:55.592Z,0.00
2023-03-16T17:51:55.574Z,0.00
2023-03-16T17:52:55.563Z,0.00
2023-03-16T17:53:55.550Z,0.00
2023-03-16T17:54:55.564Z,0.00
2023-03-16T17:55:55.535Z,0.00
2023-03-16T17:56:55.525Z,0.00
2023-03-16T17:57:55.512Z,0.00
2023-03-16T18:00:55.491Z,0.00
2023-03-16T18:01:55.543Z,0.00
2023-03-16T18:02:55.456Z,0.00
2023-03-16T18:07:55.408Z,0.00
2023-03-16T18:08:55.395Z,0.00
2023-03-16T18:09:55.385Z,0.00
2023-03-16T18:10:55.373Z,0.00
2023-03-16T18:11:55.370Z,0.00
2023-03-16T18:12:55.352Z,0.00
2023-03-16T18:29:55.187Z,0.00
2023-03-16T18:30:55.231Z,0.00
2023-03-16T18:38:55.096Z,0.00
2023-03-16T18:42:55.080Z,0.00
2023-03-16T18:43:55.054Z,0.00
2023-03-16T19:22:54.642Z,0.00
2023-03-16T19:24:54.670Z,0.00
2023-03-16T20:15:54.109Z,0.00
2023-03-16T20:17:54.078Z,0.00
2023-03-16T20:20:54.055Z,0.00
2023-03-16T20:21:54.049Z,0.00
2023-03-16T21:33:53.304Z,0.00
2023-03-16T21:37:53.262Z,0.00
2023-03-16T21:48:53.170Z,0.00
2023-03-16T21:49:53.143Z,0.00
2023-03-16T21:50:53.181Z,0.00
2023-03-16T21:51:53.118Z,0.00
2023-03-16T21:53:53.098Z,0.00
2023-03-16T21:54:53.096Z,0.00
2023-03-16T21:55:53.082Z,0.00
2023-03-16T21:56:53.167Z,0.00
2023-03-16T21:57:53.060Z,0.00
2023-03-16T21:58:53.048Z,0.00
2023-03-16T21:59:53.067Z,0.00
2023-03-16T22:00:53.028Z,0.00
2023-03-16T22:02:01.590Z,0.00
2023-03-16T22:03:53.213Z,0.00
2023-03-16T22:04:53.001Z,0.00
2023-03-16T22:05:52.976Z,0.00
2023-03-16T22:06:52.985Z,0.00
2023-03-16T22:07:52.955Z,0.00
2023-03-16T22:08:52.951Z,0.00
2023-03-16T22:09:52.941Z,0.00
2023-03-16T22:10:52.926Z,0.00
2023-03-16T22:11:52.918Z,0.00
2023-03-16T22:12:52.903Z,0.00
2023-03-16T22:13:52.896Z,0.00
2023-03-16T22:14:52.885Z,0.00
2023-03-16T22:15:53.023Z,0.00
2023-03-16T22:16:52.860Z,0.00
2023-03-16T22:17:52.869Z,0.00
2023-03-16T22:18:52.842Z,0.00
2023-03-16T22:19:52.834Z,0.00
2023-03-16T22:20:52.825Z,0.00
2023-03-16T22:21:52.820Z,0.00
2023-03-16T22:22:52.798Z,0.00
2023-03-16T22:23:52.789Z,0.00
2023-03-16T22:24:52.778Z,0.00
2023-03-16T22:26:52.766Z,0.00
2023-03-16T22:27:52.749Z,0.00
2023-03-16T22:28:52.741Z,0.00
2023-03-16T22:29:52.734Z,0.00
2023-03-16T22:30:52.720Z,0.00
2023-03-16T22:31:52.769Z,0.00
2023-03-16T22:33:52.702Z,0.00
2023-03-16T22:34:52.697Z,0.00
2023-03-16T22:37:52.661Z,0.00
2023-03-16T22:38:52.642Z,0.00
2023-03-16T22:39:52.632Z,0.00
2023-03-16T22:41:52.608Z,0.00
2023-03-16T22:44:52.574Z,0.00
2023-03-16T22:45:52.574Z,0.00
2023-03-16T22:48:52.540Z,0.00
2023-03-16T22:49:52.524Z,0.00
2023-03-16T22:50:52.519Z,0.00
2023-03-16T22:52:52.503Z,0.00
2023-03-16T22:53:52.490Z,0.00
2023-03-16T22:54:52.484Z,0.00
2023-03-16T22:55:52.464Z,0.00
2023-03-16T22:56:52.453Z,0.00
2023-03-16T22:57:52.441Z,0.00
2023-03-16T22:58:52.436Z,0.00
2023-03-16T23:00:52.434Z,0.00
